Time;durP1;ratioP1;P1;durP2;ratioP2;P2;SDS_P1;SDS_P2;PMS_P1;PMS_P2;Temp;Humidity;BMP_temperature;BMP_pressure;BME280_temperature;BME280_humidity;BME280_pressure;Samples;Min_cycle;Max_cycle;Signal;HPM_P1;HPM_P2
2021/08/29 00:00:31;;;;;;;11.95;4.82;;;16.20;99.90;;;;;;5117252;28;20041;-65
2021/08/29 00:02:57;;;;;;;11.18;3.95;;;16.20;99.90;;;;;;5084474;28;20053;-64
2021/08/29 00:05:22;;;;;;;14.85;4.28;;;16.10;99.90;;;;;;5118000;28;20059;-64
2021/08/29 00:07:48;;;;;;;11.68;3.75;;;16.10;99.90;;;;;;5126386;27;20404;-64
2021/08/29 00:10:14;;;;;;;11.60;4.25;;;16.10;99.90;;;;;;5104513;28;20066;-65
2021/08/29 00:12:41;;;;;;;11.32;3.80;;;16.10;99.90;;;;;;5103858;28;20044;-65
2021/08/29 00:15:08;;;;;;;10.07;3.92;;;16.10;99.90;;;;;;5103779;28;20101;-65
2021/08/29 00:17:34;;;;;;;11.05;4.18;;;16.10;99.90;;;;;;5086605;28;20048;-65
2021/08/29 00:19:59;;;;;;;11.88;4.38;;;16.10;99.90;;;;;;5103154;28;20051;-65
2021/08/29 00:22:25;;;;;;;9.43;4.00;;;16.10;99.90;;;;;;5104845;28;20052;-65
2021/08/29 00:24:51;;;;;;;13.00;4.72;;;16.10;99.90;;;;;;5086216;28;20043;-65
2021/08/29 00:27:17;;;;;;;12.15;4.00;;;16.10;99.90;;;;;;5093274;28;20048;-64
2021/08/29 00:29:42;;;;;;;12.10;4.72;;;16.10;99.90;;;;;;5095404;28;20083;-65
2021/08/29 00:32:08;;;;;;;8.20;4.05;;;16.10;99.90;;;;;;5104656;28;20131;-65
2021/08/29 00:34:34;;;;;;;11.18;4.32;;;16.10;99.90;;;;;;5127936;28;20144;-65
2021/08/29 00:36:59;;;;;;;12.52;5.13;;;16.10;99.90;;;;;;5116190;28;20045;-65
2021/08/29 00:39:25;;;;;;;9.27;4.78;;;16.10;99.90;;;;;;5112665;28;20043;-65
2021/08/29 00:41:51;;;;;;;12.30;4.55;;;16.10;99.90;;;;;;5104080;28;20115;-64
2021/08/29 00:44:18;;;;;;;11.07;4.13;;;16.10;99.90;;;;;;5104088;28;20047;-64
2021/08/29 00:46:45;;;;;;;11.27;4.03;;;16.00;99.90;;;;;;5137217;28;20108;-64
2021/08/29 00:49:18;;;;;;;10.77;4.20;;;16.00;99.90;;;;;;5103119;28;20040;-65
2021/08/29 00:51:44;;;;;;;10.48;4.25;;;16.00;99.90;;;;;;5103258;28;20052;-65
2021/08/29 00:54:10;;;;;;;11.85;4.25;;;16.00;99.90;;;;;;5099255;28;20053;-65
2021/08/29 00:56:35;;;;;;;14.52;3.95;;;16.00;99.90;;;;;;5134968;28;20070;-65
2021/08/29 00:59:01;;;;;;;13.43;4.45;;;16.10;99.90;;;;;;5103952;28;20040;-65
2021/08/29 01:01:40;;;;;;;11.55;4.45;;;16.10;99.90;;;;;;5103994;28;20052;-65
2021/08/29 01:04:15;;;;;;;12.55;3.92;;;16.10;99.90;;;;;;5102644;28;20136;-66
2021/08/29 01:06:57;;;;;;;10.57;4.03;;;16.00;99.90;;;;;;5104118;28;20075;-66
2021/08/29 01:09:23;;;;;;;11.15;4.63;;;16.00;99.90;;;;;;5102847;28;20047;-66
2021/08/29 01:11:52;;;;;;;14.45;4.15;;;16.00;99.90;;;;;;5104032;28;20490;-66
2021/08/29 01:14:23;;;;;;;9.32;3.90;;;16.00;99.90;;;;;;5102766;28;20047;-66
2021/08/29 01:16:55;;;;;;;13.60;4.47;;;16.00;99.90;;;;;;5102584;28;20056;-66
2021/08/29 01:19:31;;;;;;;13.95;4.40;;;16.00;99.90;;;;;;5104146;28;20040;-66
2021/08/29 01:21:59;;;;;;;14.77;4.40;;;16.00;99.90;;;;;;5108081;28;20130;-65
2021/08/29 01:24:26;;;;;;;14.98;4.60;;;16.10;99.90;;;;;;5106388;28;20048;-66
2021/08/29 01:26:52;;;;;;;11.13;4.35;;;16.10;99.90;;;;;;5106114;28;20492;-66
2021/08/29 01:29:22;;;;;;;13.35;4.63;;;16.10;99.90;;;;;;5096263;28;20054;-66
2021/08/29 01:31:48;;;;;;;16.63;4.93;;;16.10;99.90;;;;;;5106981;28;20127;-66
2021/08/29 01:34:17;;;;;;;9.25;4.10;;;16.10;99.90;;;;;;5106951;28;20052;-66
2021/08/29 01:36:44;;;;;;;9.25;4.50;;;16.10;99.90;;;;;;5103809;28;20048;-66
2021/08/29 01:39:11;;;;;;;15.07;4.88;;;16.10;99.90;;;;;;5100203;28;20097;-66
2021/08/29 01:41:40;;;;;;;9.57;4.20;;;16.10;99.90;;;;;;5102378;28;20072;-66
2021/08/29 01:44:06;;;;;;;12.63;4.60;;;16.10;99.90;;;;;;5096122;28;20051;-66
2021/08/29 01:46:33;;;;;;;11.07;4.40;;;16.10;99.90;;;;;;5122830;27;20045;-66
2021/08/29 01:49:01;;;;;;;11.10;4.60;;;16.10;99.90;;;;;;5121659;28;20052;-66
2021/08/29 01:51:27;;;;;;;13.02;5.15;;;16.10;99.90;;;;;;5131422;27;20559;-66
2021/08/29 01:53:53;;;;;;;14.20;5.45;;;16.10;99.90;;;;;;5102480;28;20067;-66
2021/08/29 01:56:20;;;;;;;15.40;4.80;;;16.10;99.90;;;;;;5101838;28;20043;-66
2021/08/29 01:58:45;;;;;;;11.77;4.57;;;16.10;99.90;;;;;;5091828;28;20462;-65
2021/08/29 02:01:12;;;;;;;11.85;4.60;;;16.10;99.90;;;;;;5103431;28;20044;-64
2021/08/29 02:03:43;;;;;;;13.25;4.70;;;16.10;99.90;;;;;;5101039;28;20059;-64
2021/08/29 02:06:16;;;;;;;11.00;4.50;;;16.10;99.90;;;;;;5099032;28;20048;-64
2021/08/29 02:08:48;;;;;;;16.25;4.32;;;16.10;99.90;;;;;;5086185;28;20036;-65
2021/08/29 02:11:17;;;;;;;8.23;3.85;;;16.10;99.90;;;;;;5086449;28;20489;-65
2021/08/29 02:13:44;;;;;;;11.13;4.45;;;16.10;99.90;;;;;;5119052;28;20049;-66
2021/08/29 02:16:14;;;;;;;8.38;3.75;;;16.10;99.90;;;;;;5085367;28;20048;-65
2021/08/29 02:18:42;;;;;;;8.85;4.35;;;16.10;99.90;;;;;;5084787;28;20146;-65
2021/08/29 02:21:09;;;;;;;10.10;4.38;;;16.10;99.90;;;;;;5086069;28;20048;-65
2021/08/29 02:23:36;;;;;;;10.32;3.95;;;16.10;99.90;;;;;;5119217;28;20068;-65
2021/08/29 02:26:03;;;;;;;10.57;4.53;;;16.20;99.90;;;;;;5087171;28;20075;-65
2021/08/29 02:28:29;;;;;;;8.93;3.83;;;16.10;99.90;;;;;;5100178;28;20079;-65
2021/08/29 02:30:55;;;;;;;14.90;4.00;;;16.10;99.90;;;;;;5084542;28;20044;-65
2021/08/29 02:33:23;;;;;;;14.25;4.10;;;16.20;99.90;;;;;;5118548;28;20059;-65
2021/08/29 02:35:51;;;;;;;12.18;4.57;;;16.10;99.90;;;;;;5118480;28;20103;-65
2021/08/29 02:38:19;;;;;;;12.90;4.10;;;16.10;99.90;;;;;;5119598;28;20051;-65
2021/08/29 02:40:46;;;;;;;10.38;3.90;;;16.10;99.90;;;;;;5094882;28;20104;-65
2021/08/29 02:43:13;;;;;;;10.88;4.07;;;16.10;99.90;;;;;;5092889;28;20043;-65
2021/08/29 02:45:41;;;;;;;13.10;4.72;;;16.10;99.90;;;;;;5131010;27;20119;-65
2021/08/29 02:48:07;;;;;;;11.68;3.78;;;16.10;99.90;;;;;;5119541;28;20136;-65
2021/08/29 02:50:33;;;;;;;11.55;4.10;;;16.10;99.90;;;;;;5096704;28;20041;-64
2021/08/29 02:53:01;;;;;;;11.52;4.00;;;16.10;99.90;;;;;;5118939;28;20061;-64
2021/08/29 02:55:27;;;;;;;15.05;4.20;;;16.10;99.90;;;;;;5097677;28;20089;-64
2021/08/29 02:58:02;;;;;;;10.93;3.85;;;16.10;99.90;;;;;;5090943;28;20041;-64
2021/08/29 03:00:28;;;;;;;11.25;3.72;;;16.00;99.90;;;;;;5085012;28;20114;-64
2021/08/29 03:02:55;;;;;;;12.32;3.80;;;16.00;99.90;;;;;;5085427;28;20048;-64
2021/08/29 03:05:21;;;;;;;11.02;4.10;;;16.00;99.90;;;;;;5085153;28;20052;-65
2021/08/29 03:07:47;;;;;;;10.13;3.95;;;16.00;99.90;;;;;;5090023;28;20049;-65
2021/08/29 03:10:13;;;;;;;11.38;4.10;;;16.00;99.90;;;;;;5084216;28;20074;-64
2021/08/29 03:12:41;;;;;;;11.65;3.35;;;16.10;99.90;;;;;;5118181;28;20080;-64
2021/08/29 03:15:07;;;;;;;9.55;3.88;;;16.10;99.90;;;;;;5086000;28;20060;-64
2021/08/29 03:17:33;;;;;;;10.23;3.80;;;16.00;99.90;;;;;;5130576;27;20040;-65
2021/08/29 03:20:07;;;;;;;8.18;3.40;;;16.00;99.90;;;;;;5085129;28;20123;-64
2021/08/29 03:22:33;;;;;;;8.40;3.97;;;16.00;99.90;;;;;;5083899;28;20049;-64
2021/08/29 03:24:59;;;;;;;11.60;3.80;;;16.00;99.90;;;;;;5118260;28;20044;-64
2021/08/29 03:27:25;;;;;;;12.07;3.55;;;16.00;99.90;;;;;;5088775;28;20099;-64
2021/08/29 03:29:50;;;;;;;10.60;4.10;;;16.00;99.90;;;;;;5091993;28;20080;-64
2021/08/29 03:32:18;;;;;;;6.97;3.05;;;16.00;99.90;;;;;;5080445;28;20127;-65
2021/08/29 03:34:44;;;;;;;8.23;3.97;;;16.00;99.90;;;;;;5085882;28;20075;-65
2021/08/29 03:37:11;;;;;;;8.63;3.97;;;16.00;99.90;;;;;;5084550;28;20045;-65
2021/08/29 03:39:37;;;;;;;8.30;3.40;;;16.00;99.90;;;;;;5083762;28;20055;-65
2021/08/29 03:42:04;;;;;;;13.95;3.95;;;16.00;99.90;;;;;;5130108;27;20085;-64
2021/08/29 03:44:30;;;;;;;12.43;4.30;;;16.00;99.90;;;;;;5084557;28;20048;-64
2021/08/29 03:46:56;;;;;;;10.48;3.85;;;16.00;99.90;;;;;;5084439;28;20044;-64
2021/08/29 03:49:22;;;;;;;10.30;3.58;;;16.00;99.90;;;;;;5084885;28;20043;-64
2021/08/29 03:51:48;;;;;;;11.90;3.38;;;16.00;99.90;;;;;;5116992;28;20124;-64
2021/08/29 03:54:14;;;;;;;8.70;3.50;;;16.00;99.90;;;;;;5120654;28;20052;-65
2021/08/29 03:56:41;;;;;;;10.88;3.35;;;16.00;99.90;;;;;;5096580;28;20105;-65
2021/08/29 03:59:07;;;;;;;11.70;3.97;;;16.00;99.90;;;;;;5084834;28;20103;-65
2021/08/29 04:01:33;;;;;;;8.20;3.00;;;16.00;99.90;;;;;;5084298;28;20048;-65
2021/08/29 04:03:59;;;;;;;13.68;3.55;;;16.00;99.90;;;;;;5083078;28;20091;-65
2021/08/29 04:06:26;;;;;;;9.85;3.70;;;16.00;99.90;;;;;;5117669;28;20075;-65
2021/08/29 04:08:55;;;;;;;9.75;3.33;;;16.00;99.90;;;;;;5083218;28;20048;-65
2021/08/29 04:11:28;;;;;;;13.00;3.17;;;16.00;99.90;;;;;;5083199;28;20074;-65
2021/08/29 04:13:55;;;;;;;14.25;3.45;;;15.90;99.90;;;;;;5084384;28;20037;-65
2021/08/29 04:16:22;;;;;;;11.60;3.40;;;15.90;99.90;;;;;;5084123;28;20055;-65
2021/08/29 04:18:48;;;;;;;11.77;3.58;;;15.90;99.90;;;;;;5083954;28;20044;-64
2021/08/29 04:21:16;;;;;;;6.28;2.85;;;15.90;99.90;;;;;;5084932;28;20040;-65
2021/08/29 04:23:42;;;;;;;8.73;3.58;;;15.90;99.90;;;;;;5084292;28;20052;-65
2021/08/29 04:26:09;;;;;;;9.38;3.35;;;15.90;99.90;;;;;;5083056;28;20040;-65
2021/08/29 04:28:35;;;;;;;7.18;3.22;;;15.90;99.90;;;;;;5086629;28;20105;-64
2021/08/29 04:31:05;;;;;;;9.15;3.47;;;15.90;99.90;;;;;;5118060;28;20047;-64
2021/08/29 04:33:31;;;;;;;7.22;2.67;;;15.90;99.90;;;;;;5083888;28;20048;-64
2021/08/29 04:35:56;;;;;;;9.40;3.50;;;15.90;99.90;;;;;;5084670;28;20052;-64
2021/08/29 04:38:22;;;;;;;6.22;3.53;;;15.90;99.90;;;;;;5084066;28;20051;-64
2021/08/29 04:40:48;;;;;;;9.18;3.80;;;15.90;99.90;;;;;;5086276;28;20060;-64
2021/08/29 04:43:14;;;;;;;10.98;3.50;;;16.00;99.90;;;;;;5129255;28;20071;-64
2021/08/29 04:45:40;;;;;;;9.13;3.40;;;16.00;99.90;;;;;;5083538;28;20041;-65
2021/08/29 04:48:05;;;;;;;8.82;3.53;;;16.00;99.90;;;;;;5117234;28;20041;-64
2021/08/29 04:50:31;;;;;;;10.35;3.60;;;16.00;99.90;;;;;;5083639;28;20044;-64
2021/08/29 04:52:57;;;;;;;11.50;3.55;;;16.00;99.90;;;;;;5084213;28;20060;-64
2021/08/29 04:55:23;;;;;;;10.18;2.92;;;16.00;99.90;;;;;;5128282;27;20060;-64
2021/08/29 04:57:48;;;;;;;9.55;3.53;;;16.00;99.90;;;;;;5087830;28;20095;-64
2021/08/29 05:00:14;;;;;;;8.32;4.18;;;16.00;99.90;;;;;;5120980;28;20049;-64
2021/08/29 05:02:40;;;;;;;9.70;3.53;;;16.00;99.90;;;;;;5088303;28;20471;-64
2021/08/29 05:05:06;;;;;;;14.95;3.63;;;16.00;99.90;;;;;;5121926;28;20052;-64
2021/08/29 05:07:33;;;;;;;10.95;4.15;;;15.90;99.90;;;;;;5087120;28;20040;-64
2021/08/29 05:09:58;;;;;;;6.78;2.95;;;15.90;99.90;;;;;;5087341;28;20404;-64
2021/08/29 05:12:24;;;;;;;9.35;3.47;;;15.80;99.90;;;;;;5088759;28;20047;-64
2021/08/29 05:14:50;;;;;;;7.23;3.53;;;15.70;99.90;;;;;;5120208;28;20080;-64
2021/08/29 05:17:16;;;;;;;8.52;3.22;;;15.60;99.90;;;;;;5087557;28;20243;-64
2021/08/29 05:19:42;;;;;;;7.07;3.05;;;15.50;99.90;;;;;;5086269;28;20057;-64
2021/08/29 05:22:07;;;;;;;5.28;3.17;;;15.40;99.90;;;;;;5087727;28;20047;-65
2021/08/29 05:24:33;;;;;;;5.30;3.15;;;15.40;99.90;;;;;;5088374;28;20049;-64
2021/08/29 05:26:59;;;;;;;9.27;3.53;;;15.30;99.90;;;;;;5087582;28;20033;-64
2021/08/29 05:29:25;;;;;;;5.97;3.17;;;15.30;99.90;;;;;;5096195;28;20048;-64
2021/08/29 05:31:50;;;;;;;9.05;3.45;;;15.30;99.90;;;;;;5120146;28;20092;-64
2021/08/29 05:34:16;;;;;;;8.50;3.38;;;15.30;99.90;;;;;;5120058;28;20055;-65
2021/08/29 05:36:42;;;;;;;8.32;3.35;;;15.20;99.90;;;;;;5120240;28;20097;-65
2021/08/29 05:39:08;;;;;;;7.13;3.72;;;15.10;99.90;;;;;;5085717;28;20044;-65
2021/08/29 05:41:34;;;;;;;6.63;3.50;;;15.10;99.90;;;;;;5129314;27;20055;-65
2021/08/29 05:44:00;;;;;;;7.53;3.42;;;15.00;99.90;;;;;;5086931;28;20079;-65
2021/08/29 05:46:25;;;;;;;8.05;3.72;;;15.00;99.90;;;;;;5119388;28;20045;-65
2021/08/29 05:48:52;;;;;;;9.18;3.30;;;15.00;99.90;;;;;;5087120;28;20047;-65
2021/08/29 05:51:18;;;;;;;10.50;4.30;;;15.00;99.90;;;;;;5119223;28;20064;-65
2021/08/29 05:53:44;;;;;;;9.00;3.20;;;15.00;99.90;;;;;;5119854;28;20045;-64
2021/08/29 05:56:10;;;;;;;8.13;3.58;;;15.00;99.90;;;;;;5099821;28;20431;-65
2021/08/29 05:58:35;;;;;;;14.00;3.90;;;15.00;99.90;;;;;;5085914;28;20204;-65
2021/08/29 06:01:01;;;;;;;9.98;3.15;;;15.00;99.90;;;;;;5119891;28;20059;-64
2021/08/29 06:03:28;;;;;;;11.68;3.67;;;15.00;99.90;;;;;;5087027;28;20064;-64
2021/08/29 06:05:54;;;;;;;11.88;3.50;;;15.00;99.90;;;;;;5119051;28;20056;-65
2021/08/29 06:08:19;;;;;;;9.45;3.10;;;15.00;99.90;;;;;;5100125;28;20047;-65
2021/08/29 06:10:45;;;;;;;13.15;3.55;;;15.10;99.90;;;;;;5086284;28;20048;-65
2021/08/29 06:13:11;;;;;;;11.45;3.60;;;15.10;99.90;;;;;;5087017;28;20037;-65
2021/08/29 06:15:37;;;;;;;9.60;3.35;;;15.10;99.90;;;;;;5125286;27;20082;-65
2021/08/29 06:18:03;;;;;;;10.40;3.13;;;15.10;99.90;;;;;;5092188;28;20040;-65
2021/08/29 06:20:28;;;;;;;12.70;3.72;;;15.10;99.90;;;;;;5085039;28;20068;-65
2021/08/29 06:22:54;;;;;;;9.60;3.15;;;15.10;99.90;;;;;;5085005;28;20048;-65
2021/08/29 06:25:20;;;;;;;12.45;4.03;;;15.20;99.90;;;;;;5120114;28;20040;-65
2021/08/29 06:27:46;;;;;;;11.00;3.80;;;15.20;99.90;;;;;;5076192;28;20044;-65
2021/08/29 06:30:12;;;;;;;12.57;3.38;;;15.20;99.90;;;;;;5088897;28;20100;-63
2021/08/29 06:32:37;;;;;;;10.32;3.10;;;15.20;99.90;;;;;;5104763;28;20047;-66
2021/08/29 06:35:03;;;;;;;11.38;2.67;;;15.30;99.90;;;;;;5139163;27;20047;-64
2021/08/29 06:37:29;;;;;;;9.77;3.40;;;15.30;99.90;;;;;;5106287;28;20079;-64
2021/08/29 06:39:55;;;;;;;11.15;3.67;;;15.30;99.90;;;;;;5139499;27;20032;-65
2021/08/29 06:42:21;;;;;;;9.30;3.08;;;15.30;99.90;;;;;;5138744;27;20044;-65
2021/08/29 06:44:46;;;;;;;10.55;2.53;;;15.30;99.90;;;;;;5133116;27;20036;-65
2021/08/29 06:47:12;;;;;;;12.82;3.17;;;15.40;99.90;;;;;;5138964;27;20051;-66
2021/08/29 06:49:38;;;;;;;8.23;2.78;;;15.40;99.90;;;;;;5106018;28;20047;-65
2021/08/29 06:52:04;;;;;;;11.70;3.13;;;15.40;99.90;;;;;;5105700;28;20407;-65
2021/08/29 06:54:29;;;;;;;10.45;3.03;;;15.40;99.90;;;;;;5136930;27;20044;-65
2021/08/29 06:56:55;;;;;;;11.30;3.63;;;15.50;99.90;;;;;;5104814;28;20052;-66
2021/08/29 06:59:21;;;;;;;7.82;2.70;;;15.50;99.90;;;;;;5105099;28;20053;-65
2021/08/29 07:01:46;;;;;;;9.23;2.55;;;15.50;99.90;;;;;;5104396;28;20055;-64
2021/08/29 07:04:12;;;;;;;7.40;2.30;;;15.50;99.90;;;;;;5103818;28;20044;-65
2021/08/29 07:06:38;;;;;;;5.57;2.30;;;15.50;99.90;;;;;;5102521;28;20047;-64
2021/08/29 07:09:04;;;;;;;7.40;2.40;;;15.60;99.90;;;;;;5103938;28;20050;-65
2021/08/29 07:11:30;;;;;;;7.65;2.60;;;15.60;99.90;;;;;;5104586;28;20089;-65
2021/08/29 07:13:55;;;;;;;4.22;1.75;;;15.60;99.90;;;;;;5104973;28;20047;-64
2021/08/29 07:16:21;;;;;;;4.75;2.00;;;15.60;99.90;;;;;;5102451;28;20036;-64
2021/08/29 07:18:47;;;;;;;4.85;2.30;;;15.70;99.90;;;;;;5136791;27;20077;-65
2021/08/29 07:21:13;;;;;;;4.88;2.40;;;15.70;99.90;;;;;;5136974;27;20098;-64
2021/08/29 07:23:39;;;;;;;5.72;2.55;;;15.80;99.90;;;;;;5103515;28;20123;-64
2021/08/29 07:26:04;;;;;;;4.70;2.17;;;15.80;99.90;;;;;;5105709;28;20048;-64
2021/08/29 07:28:30;;;;;;;4.63;1.70;;;15.70;99.90;;;;;;5104565;28;20047;-66
2021/08/29 07:30:56;;;;;;;5.53;2.65;;;15.80;99.90;;;;;;5135900;27;20048;-67
2021/08/29 07:33:22;;;;;;;3.80;2.28;;;15.80;99.90;;;;;;5136294;27;20044;-66
2021/08/29 07:35:48;;;;;;;4.60;2.00;;;15.80;99.90;;;;;;5138363;27;20044;-74
2021/08/29 07:38:13;;;;;;;7.88;2.85;;;15.80;99.90;;;;;;5138235;27;20055;-71
2021/08/29 07:40:39;;;;;;;7.72;2.60;;;15.90;99.90;;;;;;5103247;28;20043;-66
2021/08/29 07:43:05;;;;;;;7.78;2.80;;;15.90;99.90;;;;;;5104670;28;20123;-66
2021/08/29 07:45:31;;;;;;;8.38;3.20;;;16.00;99.90;;;;;;5104854;28;20035;-64
2021/08/29 07:47:56;;;;;;;6.68;3.30;;;16.00;99.90;;;;;;5137486;27;20066;-64
2021/08/29 07:50:24;;;;;;;8.80;4.00;;;16.00;99.90;;;;;;5105305;28;20036;-66
2021/08/29 07:52:50;;;;;;;8.75;3.55;;;16.10;99.90;;;;;;5136880;27;20155;-63
2021/08/29 07:55:16;;;;;;;7.20;3.47;;;16.10;99.90;;;;;;5136037;27;20431;-63
2021/08/29 07:57:42;;;;;;;7.50;3.67;;;16.20;99.90;;;;;;5103264;28;20450;-64
2021/08/29 08:00:08;;;;;;;9.18;3.92;;;16.30;99.90;;;;;;5120556;27;20077;-64
2021/08/29 08:02:34;;;;;;;9.43;4.13;;;16.40;99.90;;;;;;5137768;27;20067;-63
2021/08/29 08:05:00;;;;;;;9.50;4.13;;;16.50;99.90;;;;;;5093447;28;20075;-63
2021/08/29 08:07:25;;;;;;;13.50;4.15;;;16.50;99.90;;;;;;5097166;28;20036;-63
2021/08/29 08:09:51;;;;;;;7.68;4.05;;;16.60;99.90;;;;;;5084346;28;20040;-63
2021/08/29 08:12:17;;;;;;;12.48;4.50;;;16.60;99.90;;;;;;5098517;28;20044;-62
2021/08/29 08:14:43;;;;;;;9.68;4.00;;;16.60;99.90;;;;;;5102608;28;20408;-61
2021/08/29 08:17:08;;;;;;;9.25;3.83;;;16.70;99.90;;;;;;5102206;28;20044;-62
2021/08/29 08:19:34;;;;;;;7.53;3.72;;;16.70;99.90;;;;;;5085969;28;20040;-64
2021/08/29 08:22:01;;;;;;;9.30;3.90;;;16.70;99.90;;;;;;5102593;28;20044;-62
2021/08/29 08:24:26;;;;;;;9.15;3.85;;;16.70;99.90;;;;;;5102594;28;20044;-66
2021/08/29 08:26:52;;;;;;;11.38;5.50;;;16.70;99.90;;;;;;5101330;28;20109;-62
2021/08/29 08:29:18;;;;;;;10.85;4.65;;;16.70;99.90;;;;;;5100847;28;20650;-62
2021/08/29 08:31:43;;;;;;;8.95;3.78;;;16.70;99.90;;;;;;5103359;28;20408;-63
2021/08/29 08:34:09;;;;;;;13.43;5.22;;;16.70;99.90;;;;;;5103010;28;20036;-63
2021/08/29 08:36:35;;;;;;;10.15;3.80;;;16.70;99.90;;;;;;5104111;28;20102;-63
2021/08/29 08:39:01;;;;;;;8.18;4.18;;;16.70;99.90;;;;;;5085911;28;20488;-63
2021/08/29 08:41:27;;;;;;;9.85;3.25;;;16.70;99.90;;;;;;5102034;28;20071;-63
2021/08/29 08:43:54;;;;;;;11.57;4.20;;;16.70;99.90;;;;;;5101651;28;20135;-63
2021/08/29 08:46:22;;;;;;;6.18;3.03;;;16.70;99.90;;;;;;5103260;28;20036;-62
2021/08/29 08:48:50;;;;;;;8.68;4.53;;;16.80;99.90;;;;;;5104535;28;20032;-64
2021/08/29 08:51:28;;;;;;;11.77;3.70;;;16.80;99.90;;;;;;5102894;28;20036;-64
2021/08/29 08:53:56;;;;;;;9.68;4.40;;;16.70;99.90;;;;;;5134621;28;20166;-62
2021/08/29 08:56:23;;;;;;;5.55;2.67;;;16.70;99.90;;;;;;5102259;28;20052;-63
2021/08/29 08:58:48;;;;;;;8.90;3.30;;;16.70;99.90;;;;;;5103318;28;20051;-63
2021/08/29 09:01:14;;;;;;;6.68;3.10;;;16.60;99.90;;;;;;5103487;28;20048;-64
2021/08/29 09:03:41;;;;;;;6.85;3.15;;;16.60;99.90;;;;;;5103305;28;20044;-63
2021/08/29 09:06:08;;;;;;;4.07;3.03;;;16.60;99.90;;;;;;5102145;28;20148;-63
2021/08/29 09:08:35;;;;;;;5.45;2.97;;;16.60;99.90;;;;;;5101062;28;20047;-62
2021/08/29 09:11:02;;;;;;;4.00;2.75;;;16.60;99.90;;;;;;5102020;28;20040;-62
2021/08/29 09:13:47;;;;;;;9.73;3.78;;;16.60;99.90;;;;;;5102022;28;20040;-64
2021/08/29 09:16:15;;;;;;;5.40;3.50;;;16.60;99.90;;;;;;5101465;28;20415;-64
2021/08/29 09:18:50;;;;;;;4.95;3.00;;;16.60;99.90;;;;;;5103396;28;20079;-62
2021/08/29 09:21:24;;;;;;;6.15;3.38;;;16.60;99.90;;;;;;5103809;28;20052;-65
2021/08/29 09:23:51;;;;;;;5.28;3.22;;;16.70;99.90;;;;;;5136135;28;20051;-62
2021/08/29 09:26:22;;;;;;;4.97;3.42;;;16.70;99.90;;;;;;5129473;28;20638;-62
2021/08/29 09:28:49;;;;;;;6.25;3.13;;;16.70;99.90;;;;;;5119014;28;20049;-62
2021/08/29 09:31:17;;;;;;;4.28;2.58;;;16.80;99.90;;;;;;5096429;28;20128;-62
2021/08/29 09:33:56;;;;;;;4.68;3.60;;;16.80;99.90;;;;;;5081714;28;20119;-62
2021/08/29 09:36:33;;;;;;;5.10;3.30;;;16.80;99.90;;;;;;5083671;28;20048;-62
2021/08/29 09:39:10;;;;;;;5.82;2.97;;;16.80;99.90;;;;;;5083220;28;20040;-63
2021/08/29 09:41:36;;;;;;;3.97;2.90;;;16.80;99.90;;;;;;5129944;27;20144;-62
2021/08/29 09:44:22;;;;;;;6.63;2.80;;;16.80;99.90;;;;;;5088145;28;20044;-62
2021/08/29 09:46:59;;;;;;;5.25;3.00;;;16.90;99.90;;;;;;5120338;28;20094;-62
2021/08/29 09:49:33;;;;;;;6.75;3.35;;;17.00;99.90;;;;;;5085675;28;20036;-63
2021/08/29 09:52:00;;;;;;;6.53;2.95;;;17.00;99.90;;;;;;5087429;28;20544;-63
2021/08/29 09:54:40;;;;;;;5.32;3.10;;;17.10;99.90;;;;;;5121595;28;20104;-62
2021/08/29 09:57:08;;;;;;;7.93;3.78;;;17.20;99.90;;;;;;5087081;28;20086;-62
2021/08/29 09:59:51;;;;;;;6.20;3.35;;;17.10;99.90;;;;;;5085474;28;20072;-62
2021/08/29 10:02:27;;;;;;;6.05;3.78;;;17.10;99.90;;;;;;5087176;28;20064;-62
2021/08/29 10:05:15;;;;;;;4.60;3.20;;;17.10;99.90;;;;;;5086591;28;20044;-63
2021/08/29 10:08:09;;;;;;;7.78;3.13;;;17.10;99.90;;;;;;5119286;28;20052;-62
2021/08/29 10:10:41;;;;;;;6.07;3.03;;;17.10;99.90;;;;;;5086644;28;20079;-62
2021/08/29 10:13:07;;;;;;;7.28;3.63;;;17.10;99.90;;;;;;5119021;28;20076;-62
2021/08/29 10:15:34;;;;;;;7.85;3.15;;;17.00;99.90;;;;;;5119424;28;20056;-62
2021/08/29 10:18:01;;;;;;;6.97;3.42;;;17.00;99.90;;;;;;5119564;28;20045;-62
2021/08/29 10:20:31;;;;;;;6.25;3.13;;;17.00;99.90;;;;;;5086780;28;20103;-63
2021/08/29 10:22:57;;;;;;;5.70;2.53;;;17.10;99.90;;;;;;5084878;28;20231;-62
2021/08/29 10:25:24;;;;;;;10.75;3.45;;;17.10;99.90;;;;;;5086109;28;20040;-63
2021/08/29 10:28:12;;;;;;;7.03;3.40;;;17.10;99.90;;;;;;5091839;28;20040;-63
2021/08/29 10:30:40;;;;;;;6.82;3.05;;;17.10;99.90;;;;;;5086047;28;20566;-63
2021/08/29 10:33:11;;;;;;;6.43;3.00;;;17.10;99.90;;;;;;5087036;28;20053;-63
2021/08/29 10:35:38;;;;;;;9.52;3.20;;;17.20;99.90;;;;;;5087230;28;20048;-63
2021/08/29 10:38:05;;;;;;;5.53;2.92;;;17.20;99.90;;;;;;5119179;28;20515;-63
2021/08/29 10:40:31;;;;;;;5.10;2.78;;;17.20;99.90;;;;;;5089134;28;20040;-63
2021/08/29 10:42:58;;;;;;;5.63;2.45;;;17.20;99.90;;;;;;5085423;28;20052;-64
2021/08/29 10:45:24;;;;;;;8.32;3.22;;;17.20;99.90;;;;;;5085631;28;20048;-62
2021/08/29 10:47:51;;;;;;;7.68;3.10;;;17.20;99.90;;;;;;5122525;27;20531;-63
2021/08/29 10:50:19;;;;;;;6.25;2.80;;;17.20;99.90;;;;;;5095817;28;20067;-63
2021/08/29 10:52:45;;;;;;;2.85;2.20;;;17.30;99.90;;;;;;5085260;28;20127;-63
2021/08/29 10:55:15;;;;;;;9.13;3.10;;;17.30;99.90;;;;;;5092506;28;20067;-63
2021/08/29 10:57:42;;;;;;;5.47;2.72;;;17.30;99.90;;;;;;5086653;28;20098;-63
2021/08/29 11:00:25;;;;;;;4.28;2.67;;;17.30;99.90;;;;;;5084576;28;20051;-63
2021/08/29 11:02:51;;;;;;;5.63;2.88;;;17.30;99.90;;;;;;5102449;28;20055;-63
2021/08/29 11:05:40;;;;;;;5.88;2.90;;;17.40;99.90;;;;;;5085531;28;20051;-63
2021/08/29 11:08:26;;;;;;;6.70;3.22;;;17.40;99.90;;;;;;5117986;27;20373;-63
2021/08/29 11:10:52;;;;;;;6.97;3.08;;;17.40;99.90;;;;;;5119060;28;20052;-63
2021/08/29 11:13:31;;;;;;;5.60;2.33;;;17.40;99.90;;;;;;5084092;28;20055;-63
2021/08/29 11:16:18;;;;;;;6.57;3.60;;;17.50;99.90;;;;;;5089906;28;20062;-63
2021/08/29 11:18:59;;;;;;;4.68;2.83;;;17.50;99.90;;;;;;5091818;28;20043;-62
2021/08/29 11:21:45;;;;;;;6.88;2.90;;;17.50;99.90;;;;;;5085839;28;20044;-63
2021/08/29 11:24:11;;;;;;;5.95;2.92;;;17.60;99.90;;;;;;5079638;28;20055;-62
2021/08/29 11:26:43;;;;;;;4.35;2.40;;;17.60;99.90;;;;;;5083351;28;20416;-63
2021/08/29 11:29:40;;;;;;;4.75;2.58;;;17.60;99.90;;;;;;5103053;28;20040;-63
2021/08/29 11:32:06;;;;;;;5.45;2.40;;;17.60;99.90;;;;;;5122486;27;20051;-63
2021/08/29 11:34:32;;;;;;;5.72;2.40;;;17.70;99.90;;;;;;5117640;28;20055;-63
2021/08/29 11:37:18;;;;;;;4.78;2.63;;;17.80;99.90;;;;;;5099999;28;20052;-63
2021/08/29 11:39:43;;;;;;;3.80;2.58;;;17.80;99.90;;;;;;5077864;28;20507;-63
2021/08/29 11:42:17;;;;;;;6.28;2.90;;;17.80;99.90;;;;;;5100238;28;20052;-63
2021/08/29 11:44:44;;;;;;;5.38;3.45;;;17.80;99.90;;;;;;5084627;28;20037;-63
2021/08/29 11:47:10;;;;;;;4.70;3.10;;;17.80;99.90;;;;;;5089038;28;20052;-63
2021/08/29 11:49:37;;;;;;;4.00;2.90;;;17.80;99.90;;;;;;5093463;28;20506;-62
2021/08/29 11:52:05;;;;;;;3.65;2.78;;;17.80;99.90;;;;;;5116817;28;20037;-62
2021/08/29 11:54:30;;;;;;;6.90;3.60;;;17.90;99.90;;;;;;5085145;28;20063;-63
2021/08/29 11:56:56;;;;;;;4.63;3.38;;;17.80;99.90;;;;;;5087153;28;20052;-62
2021/08/29 11:59:33;;;;;;;7.03;3.35;;;17.80;99.90;;;;;;5083949;28;20117;-63
2021/08/29 12:02:00;;;;;;;5.93;3.83;;;17.80;99.90;;;;;;5117021;28;20076;-63
2021/08/29 12:04:26;;;;;;;7.10;4.05;;;17.80;99.90;;;;;;5117389;28;20493;-63
2021/08/29 12:07:05;;;;;;;4.22;3.60;;;17.70;99.90;;;;;;5117908;28;20512;-63
2021/08/29 12:09:42;;;;;;;7.90;4.20;;;17.80;99.90;;;;;;5086307;28;20091;-62
2021/08/29 12:12:18;;;;;;;6.63;3.08;;;17.80;99.90;;;;;;5126994;27;20070;-62
2021/08/29 12:14:45;;;;;;;6.32;3.20;;;17.80;99.90;;;;;;5084378;28;20044;-63
2021/08/29 12:17:12;;;;;;;4.78;3.10;;;17.90;99.90;;;;;;5117127;28;20052;-62
2021/08/29 12:19:40;;;;;;;4.20;3.03;;;17.90;99.90;;;;;;5116842;28;20060;-63
2021/08/29 12:22:09;;;;;;;7.07;3.35;;;18.00;99.90;;;;;;5084157;28;20048;-63
2021/08/29 12:24:38;;;;;;;6.15;3.10;;;18.10;99.90;;;;;;5085168;28;20451;-63
2021/08/29 12:27:04;;;;;;;4.67;3.20;;;18.00;99.90;;;;;;5118749;28;20048;-63
2021/08/29 12:29:31;;;;;;;7.35;3.58;;;18.00;99.90;;;;;;5087120;28;20039;-62
2021/08/29 12:32:08;;;;;;;5.30;3.47;;;18.00;99.90;;;;;;5117780;28;20112;-62
2021/08/29 12:34:34;;;;;;;6.93;3.58;;;17.90;99.90;;;;;;5083746;28;20143;-62
2021/08/29 12:37:05;;;;;;;7.68;3.28;;;18.00;99.90;;;;;;5083217;28;20052;-62
2021/08/29 12:39:31;;;;;;;5.00;3.40;;;17.90;99.90;;;;;;5084291;28;20092;-63
2021/08/29 12:42:20;;;;;;;6.30;3.13;;;18.00;99.90;;;;;;5086933;28;20052;-63
2021/08/29 12:44:47;;;;;;;6.75;3.33;;;18.00;99.90;;;;;;5084108;28;20159;-63
2021/08/29 12:47:13;;;;;;;6.65;3.92;;;18.00;99.90;;;;;;5116326;28;20051;-62